createdAt,value
2023-05-19T00:00:18.819Z,96980.47
2023-05-19T00:02:47.946Z,96980.72
2023-05-19T00:05:19.005Z,96977.53
2023-05-19T00:07:49.663Z,96972.59
2023-05-19T00:10:19.712Z,96975.06
2023-05-19T00:12:52.470Z,96970.69
2023-05-19T00:15:22.893Z,96971.97
2023-05-19T00:17:52.509Z,96955.09
2023-05-19T00:20:21.005Z,96963.16
2023-05-19T00:22:51.604Z,96963.97
2023-05-19T00:25:20.258Z,96972.31
2023-05-19T00:27:51.747Z,96969.16
2023-05-19T00:30:22.840Z,96966.56
2023-05-19T00:32:52.879Z,96967.03
2023-05-19T00:35:21.746Z,96956.06
2023-05-19T00:37:51.320Z,96968.44
2023-05-19T00:40:20.070Z,96963.13
2023-05-19T00:42:50.258Z,96884.66
2023-05-19T00:45:19.589Z,96956.19
2023-05-19T00:47:49.652Z,96943.75
2023-05-19T00:50:19.144Z,96942.03
2023-05-19T00:52:48.219Z,96940.81
2023-05-19T00:55:17.444Z,96943.53
2023-05-19T00:57:46.541Z,96935.97
2023-05-19T01:00:17.712Z,96935.28
2023-05-19T01:02:46.286Z,96930.91
2023-05-19T01:05:15.740Z,96928.56
2023-05-19T01:07:44.566Z,96922.31
2023-05-19T01:10:12.980Z,96925.38
2023-05-19T01:12:42.774Z,96919.22
2023-05-19T01:15:12.521Z,96926.69
2023-05-19T01:17:50.931Z,96918.03
2023-05-19T01:20:25.924Z,96918.03
2023-05-19T01:23:15.502Z,96923.97
2023-05-19T01:26:05.609Z,96923.59
2023-05-19T01:29:08.959Z,96922.31
2023-05-19T01:31:42.491Z,96916.41
2023-05-19T01:34:14.101Z,96920.53
2023-05-19T01:36:45.337Z,96913.69
2023-05-19T01:39:15.210Z,96903.75
2023-05-19T01:41:46.572Z,96899.41
2023-05-19T01:44:16.041Z,96906.38
2023-05-19T01:46:48.559Z,96906.59
2023-05-19T01:49:17.533Z,96909.31
2023-05-19T01:51:46.573Z,96909.06
2023-05-19T01:54:16.001Z,96908.63
2023-05-19T01:56:53.685Z,96914.97
2023-05-19T01:59:35.451Z,96911.56
2023-05-19T02:02:15.983Z,96911.31
2023-05-19T02:04:50.887Z,96919.94
2023-05-19T02:07:31.968Z,96917.94
2023-05-19T02:10:08.474Z,96912.63
2023-05-19T02:12:40.124Z,96915.81
2023-05-19T02:15:13.380Z,96916.31
2023-05-19T02:17:47.773Z,96911.09
2023-05-19T02:20:17.449Z,96909.19
2023-05-19T02:22:46.309Z,96913.09
2023-05-19T02:25:15.569Z,96911.91
2023-05-19T02:27:43.960Z,96916.41
2023-05-19T02:30:13.557Z,96905.31
2023-05-19T02:32:47.261Z,96900.84
2023-05-19T02:35:16.319Z,96913.91
2023-05-19T02:37:44.706Z,96907.09
2023-05-19T02:40:14.780Z,96910.75
2023-05-19T02:42:47.175Z,96888.69
2023-05-19T02:45:16.334Z,96905.81
2023-05-19T02:47:46.333Z,96907.91
2023-05-19T02:50:16.200Z,96908.53
2023-05-19T02:52:44.683Z,96904.03
2023-05-19T02:55:17.503Z,96907.81
2023-05-19T02:57:46.041Z,96909.31
2023-05-19T03:00:16.382Z,96904.47
2023-05-19T03:02:47.398Z,96906.38
2023-05-19T03:05:15.867Z,96900.13
2023-05-19T03:07:45.104Z,96900.59
2023-05-19T03:10:13.480Z,96900.25
2023-05-19T03:12:42.267Z,96896.34
2023-05-19T03:15:13.137Z,96897.19
2023-05-19T03:17:42.403Z,96885.09
2023-05-19T03:20:13.162Z,96899.25
2023-05-19T03:22:43.121Z,96892.28
2023-05-19T03:25:11.760Z,96894.06
2023-05-19T03:27:40.670Z,96892.09
2023-05-19T03:30:11.923Z,96889.38
2023-05-19T03:32:54.103Z,96893.00
2023-05-19T03:35:24.390Z,96892.88
2023-05-19T03:37:53.415Z,96891.22
2023-05-19T03:40:23.843Z,96893.47
2023-05-19T03:42:55.215Z,96868.00
2023-05-19T03:45:24.605Z,96896.41
2023-05-19T03:47:54.244Z,96898.53
2023-05-19T03:50:45.943Z,96901.59
2023-05-19T03:53:19.225Z,96905.13
2023-05-19T03:55:50.036Z,96909.16
2023-05-19T03:58:18.847Z,96903.00
2023-05-19T04:00:47.648Z,96909.03
2023-05-19T04:03:17.531Z,96905.47
2023-05-19T04:05:47.865Z,96882.59
2023-05-19T04:08:16.565Z,96903.25
2023-05-19T04:10:46.380Z,96905.72
2023-05-19T04:13:16.441Z,96901.25
2023-05-19T04:15:44.973Z,96896.41
2023-05-19T04:18:14.276Z,96904.91
2023-05-19T04:20:43.746Z,96899.97
2023-05-19T04:23:13.823Z,96898.88
2023-05-19T04:25:42.276Z,96884.97
2023-05-19T04:28:11.506Z,96900.19
2023-05-19T04:30:40.910Z,96898.16
2023-05-19T04:33:10.310Z,96899.38
2023-05-19T04:35:40.098Z,96905.47
2023-05-19T04:38:12.073Z,96902.31
2023-05-19T04:40:45.449Z,96895.13
2023-05-19T04:43:14.568Z,96900.78
2023-05-19T04:45:44.698Z,96906.69
2023-05-19T04:48:14.024Z,96897.47
2023-05-19T04:50:44.093Z,96901.16
2023-05-19T04:53:13.607Z,96901.03
2023-05-19T04:55:47.529Z,96888.28
2023-05-19T04:58:20.630Z,96892.09
2023-05-19T05:00:50.678Z,96897.84
2023-05-19T05:03:23.348Z,96886.03
2023-05-19T05:05:52.878Z,96892.69
2023-05-19T05:08:23.865Z,96892.22
2023-05-19T05:10:54.767Z,96900.13
2023-05-19T05:13:26.028Z,96893.88
2023-05-19T05:15:56.553Z,96887.25
2023-05-19T05:18:25.561Z,96882.69
2023-05-19T05:20:56.021Z,96887.97
2023-05-19T05:23:25.967Z,96886.19
2023-05-19T05:25:57.100Z,96868.97
2023-05-19T05:28:25.549Z,96876.03
2023-05-19T05:30:56.329Z,96867.91
2023-05-19T05:33:27.785Z,96871.19
2023-05-19T05:35:56.213Z,96879.25
2023-05-19T05:38:26.478Z,96877.13
2023-05-19T05:40:56.204Z,96886.31
2023-05-19T05:43:26.230Z,96888.56
2023-05-19T05:46:00.167Z,96885.47
2023-05-19T05:48:29.337Z,96881.81
2023-05-19T05:51:01.705Z,96878.41
2023-05-19T05:53:38.075Z,96879.59
2023-05-19T05:56:10.092Z,96874.03
2023-05-19T05:58:45.661Z,96855.84
2023-05-19T06:01:18.720Z,96873.72
2023-05-19T06:03:47.172Z,96875.84
2023-05-19T06:06:21.688Z,96873.91
2023-05-19T06:08:50.063Z,96865.03
2023-05-19T06:11:21.629Z,96873.28
2023-05-19T06:13:50.087Z,96870.75
2023-05-19T06:16:37.617Z,96868.03
2023-05-19T06:19:06.486Z,96879.16
2023-05-19T06:21:35.330Z,96876.69
2023-05-19T06:24:03.751Z,96880.81
2023-05-19T06:26:33.965Z,96874.16
2023-05-19T06:29:02.469Z,96873.66
2023-05-19T06:31:31.884Z,96870.47
2023-05-19T06:34:07.425Z,96873.09
2023-05-19T06:36:37.038Z,96874.66
2023-05-19T06:39:05.457Z,96873.91
2023-05-19T06:41:35.865Z,96872.34
2023-05-19T06:44:05.373Z,96879.50
2023-05-19T06:46:35.169Z,96884.13
2023-05-19T06:49:04.221Z,96880.81
2023-05-19T06:51:37.114Z,96873.00
2023-05-19T06:54:06.159Z,96878.94
2023-05-19T06:56:36.701Z,96883.00
2023-05-19T06:59:05.228Z,96882.00
2023-05-19T07:01:38.823Z,96882.84
2023-05-19T07:04:08.566Z,96879.28
2023-05-19T07:06:37.333Z,96890.56
2023-05-19T07:09:06.946Z,96892.72
2023-05-19T07:11:39.636Z,96892.13
2023-05-19T07:14:09.419Z,96886.09
2023-05-19T07:16:38.053Z,96886.25
2023-05-19T07:19:07.510Z,96886.28
2023-05-19T07:21:36.529Z,96890.16
2023-05-19T07:24:05.975Z,96886.47
2023-05-19T07:26:54.896Z,96890.75
2023-05-19T07:29:23.280Z,96898.06
2023-05-19T07:31:54.596Z,96896.19
2023-05-19T07:34:22.989Z,96889.66
2023-05-19T07:36:51.860Z,96892.38
2023-05-19T07:39:20.253Z,96891.66
2023-05-19T07:41:52.757Z,96876.97
2023-05-19T07:44:23.192Z,96889.03
2023-05-19T07:46:51.566Z,96894.47
2023-05-19T07:49:20.506Z,96886.88
2023-05-19T07:51:49.191Z,96862.31
2023-05-19T07:54:18.474Z,96884.97
2023-05-19T07:56:47.178Z,96885.88
2023-05-19T07:59:16.618Z,96887.59
2023-05-19T08:01:46.932Z,96884.56
2023-05-19T08:04:15.510Z,96884.56
2023-05-19T08:06:44.999Z,96880.81
2023-05-19T08:09:13.419Z,96875.03
2023-05-19T08:11:42.716Z,96875.75
2023-05-19T08:14:11.296Z,96876.94
2023-05-19T08:16:41.880Z,96869.78
2023-05-19T08:19:11.749Z,96878.41
2023-05-19T08:21:43.337Z,96872.50
2023-05-19T08:24:11.744Z,96873.41
2023-05-19T08:26:41.310Z,96869.50
2023-05-19T08:29:09.660Z,96861.25
2023-05-19T08:31:39.352Z,96860.84
2023-05-19T08:34:07.722Z,96862.56
2023-05-19T08:36:37.983Z,96866.88
2023-05-19T08:39:06.628Z,96857.03
2023-05-19T08:41:37.316Z,96863.75
2023-05-19T08:44:06.436Z,96866.31
2023-05-19T08:46:35.340Z,96864.56
2023-05-19T08:49:09.503Z,96857.66
2023-05-19T08:51:45.302Z,96855.75
2023-05-19T08:54:18.031Z,96859.97
2023-05-19T08:56:47.324Z,96868.00
2023-05-19T08:59:16.110Z,96866.09
2023-05-19T09:01:47.506Z,96861.59
2023-05-19T09:04:17.719Z,96862.28
2023-05-19T09:06:48.861Z,96861.97
2023-05-19T09:09:17.369Z,96862.78
2023-05-19T09:11:48.660Z,96864.47
2023-05-19T09:14:17.032Z,96855.81
2023-05-19T09:16:50.177Z,96860.72
2023-05-19T09:19:18.618Z,96854.88
2023-05-19T09:22:01.042Z,96863.78
2023-05-19T09:24:29.871Z,96863.28
2023-05-19T09:27:00.483Z,96865.09
2023-05-19T09:29:29.017Z,96862.53
2023-05-19T09:32:00.866Z,96854.88
2023-05-19T09:34:29.568Z,96853.66
2023-05-19T09:37:00.324Z,96853.53
2023-05-19T09:39:28.887Z,96861.59
2023-05-19T09:41:59.720Z,96847.91
2023-05-19T09:44:29.838Z,96846.75
2023-05-19T09:47:00.304Z,96846.16
2023-05-19T09:49:31.274Z,96844.75
2023-05-19T09:52:04.874Z,96838.19
2023-05-19T09:54:35.402Z,96839.88
2023-05-19T09:57:08.305Z,96832.91
2023-05-19T09:59:38.958Z,96840.78
2023-05-19T10:02:14.694Z,96846.19
2023-05-19T10:04:45.307Z,96842.16
2023-05-19T10:07:17.589Z,96842.38
2023-05-19T10:09:48.325Z,96838.31
2023-05-19T10:12:18.211Z,96825.00
2023-05-19T10:14:49.180Z,96830.38
2023-05-19T10:17:17.621Z,96830.53
2023-05-19T10:19:47.258Z,96829.19
2023-05-19T10:22:17.135Z,96829.75
2023-05-19T10:24:47.110Z,96821.53
2023-05-19T10:27:17.046Z,96835.44
2023-05-19T10:29:51.424Z,96826.44
2023-05-19T10:32:24.021Z,96820.44
2023-05-19T10:35:16.235Z,96822.56
2023-05-19T10:37:52.089Z,96822.25
2023-05-19T10:40:28.886Z,96821.38
2023-05-19T10:43:19.147Z,96815.19
2023-05-19T10:45:50.516Z,96796.28
2023-05-19T10:48:21.548Z,96817.34
2023-05-19T10:50:55.358Z,96819.44
2023-05-19T10:53:32.676Z,96812.31
2023-05-19T10:56:04.670Z,96801.41
2023-05-19T10:58:52.079Z,96803.53
2023-05-19T11:01:22.310Z,96804.84
2023-05-19T11:03:54.096Z,96804.16
2023-05-19T11:06:27.370Z,96798.97
2023-05-19T11:09:01.071Z,96803.94
2023-05-19T11:11:46.505Z,96782.22
2023-05-19T11:14:17.382Z,96797.25
2023-05-19T11:16:48.961Z,96801.09
2023-05-19T11:19:21.797Z,96795.09
2023-05-19T11:21:52.640Z,96782.31
2023-05-19T11:24:40.052Z,96791.91
2023-05-19T11:27:28.993Z,96789.41
2023-05-19T11:29:59.523Z,96787.38
2023-05-19T11:32:29.897Z,96779.47
2023-05-19T11:34:59.841Z,96774.34
2023-05-19T11:37:28.982Z,96790.59
2023-05-19T11:40:00.613Z,96776.50
2023-05-19T11:42:28.994Z,96787.94
2023-05-19T11:44:58.598Z,96777.13
2023-05-19T11:47:27.427Z,96781.63
2023-05-19T11:49:58.003Z,96776.91
2023-05-19T11:52:28.747Z,96756.44
2023-05-19T11:54:58.515Z,96778.88
2023-05-19T11:57:28.964Z,96785.91
2023-05-19T11:59:58.158Z,96783.06
2023-05-19T12:02:27.737Z,96782.72
2023-05-19T12:04:57.204Z,96773.31
2023-05-19T12:07:26.521Z,96771.25
2023-05-19T12:09:57.449Z,96768.03
2023-05-19T12:12:31.562Z,96764.72
2023-05-19T12:15:04.659Z,96768.31
2023-05-19T12:17:33.925Z,96763.31
2023-05-19T12:20:03.147Z,96772.97
2023-05-19T12:22:31.825Z,96766.88
2023-05-19T12:25:02.222Z,96765.06
2023-05-19T12:27:38.042Z,96764.75
2023-05-19T12:30:08.861Z,96759.41
2023-05-19T12:32:38.015Z,96747.50
2023-05-19T12:35:07.759Z,96753.81
2023-05-19T12:37:38.503Z,96755.75
2023-05-19T12:40:08.732Z,96754.06
2023-05-19T12:42:39.963Z,96748.25
2023-05-19T12:45:09.391Z,96750.28
2023-05-19T12:47:38.435Z,96735.91
2023-05-19T12:50:09.534Z,96735.97
2023-05-19T12:52:45.096Z,96732.63
2023-05-19T12:55:14.477Z,96739.00
2023-05-19T12:57:50.669Z,96742.03
2023-05-19T13:00:21.190Z,96735.25
2023-05-19T13:02:59.121Z,96739.50
2023-05-19T13:05:28.703Z,96741.66
2023-05-19T13:07:59.374Z,96739.69
2023-05-19T13:10:29.295Z,96743.59
2023-05-19T13:13:00.233Z,96743.56
2023-05-19T13:15:32.207Z,96748.19
2023-05-19T13:18:01.773Z,96740.78
2023-05-19T13:20:32.236Z,96742.25
2023-05-19T13:23:01.996Z,96735.75
2023-05-19T13:25:30.679Z,96741.41
2023-05-19T13:28:04.323Z,96739.63
2023-05-19T13:30:33.377Z,96711.25
2023-05-19T13:33:03.131Z,96733.13
2023-05-19T13:35:36.761Z,96723.94
2023-05-19T13:38:06.560Z,96720.31
2023-05-19T13:40:35.657Z,96714.41
2023-05-19T13:43:06.259Z,96714.59
2023-05-19T13:45:34.849Z,96719.16
2023-05-19T13:48:03.701Z,96711.47
2023-05-19T13:50:32.648Z,96716.03
2023-05-19T13:53:01.254Z,96708.38
2023-05-19T13:55:30.745Z,96706.19
2023-05-19T13:58:00.230Z,96698.41
2023-05-19T14:00:30.793Z,96706.13
2023-05-19T14:03:00.781Z,96697.78
2023-05-19T14:05:31.419Z,96697.84
2023-05-19T14:08:01.613Z,96686.41
2023-05-19T14:10:31.197Z,96700.19
2023-05-19T14:15:37.815Z,96690.38
2023-05-19T14:18:07.109Z,96680.38
2023-05-19T14:20:36.765Z,96664.38
2023-05-19T14:23:05.317Z,96672.16
2023-05-19T14:25:34.448Z,96684.38
2023-05-19T14:28:02.888Z,96685.59
2023-05-19T14:30:31.491Z,96690.19
2023-05-19T14:33:02.569Z,96685.75
2023-05-19T14:35:30.941Z,96677.31
2023-05-19T14:38:00.114Z,96684.66
2023-05-19T14:40:28.474Z,96686.00
2023-05-19T14:42:57.231Z,96684.72
2023-05-19T14:45:25.572Z,96687.78
2023-05-19T14:47:54.501Z,96691.75
2023-05-19T14:50:24.659Z,96686.66
2023-05-19T14:52:53.042Z,96686.19
2023-05-19T14:55:22.436Z,96681.31
2023-05-19T14:57:51.185Z,96686.63
2023-05-19T15:00:20.499Z,96680.44
2023-05-19T15:02:49.516Z,96673.06
2023-05-19T15:05:18.255Z,96680.09
2023-05-19T15:07:48.034Z,96680.81
2023-05-19T15:10:18.022Z,96693.19
2023-05-19T15:12:46.532Z,96684.97
2023-05-19T15:15:15.612Z,96681.84
2023-05-19T15:17:45.996Z,96680.53
2023-05-19T15:20:15.202Z,96678.69
2023-05-19T15:22:43.547Z,96678.00
2023-05-19T15:25:13.404Z,96671.19
2023-05-19T15:27:41.728Z,96672.00
2023-05-19T15:30:11.577Z,96663.47
2023-05-19T15:32:40.118Z,96662.75
2023-05-19T15:35:09.662Z,96657.44
2023-05-19T15:37:39.145Z,96672.19
2023-05-19T15:40:08.948Z,96670.81
2023-05-19T15:42:39.516Z,96663.41
2023-05-19T15:45:10.525Z,96652.69
2023-05-19T15:47:40.156Z,96660.31
2023-05-19T15:50:10.024Z,96653.94
2023-05-19T15:52:39.240Z,96650.78
2023-05-19T15:55:09.018Z,96650.50
2023-05-19T15:57:39.878Z,96649.22
2023-05-19T16:00:10.177Z,96652.13
2023-05-19T16:02:38.626Z,96650.16
2023-05-19T16:05:08.326Z,96639.66
2023-05-19T16:07:36.657Z,96640.16
2023-05-19T16:10:07.372Z,96631.13
2023-05-19T16:12:36.596Z,96635.50
2023-05-19T16:15:08.128Z,96631.75
2023-05-19T16:17:36.653Z,96627.09
2023-05-19T16:20:06.133Z,96632.81
2023-05-19T16:22:35.452Z,96626.44
2023-05-19T16:25:03.815Z,96619.97
2023-05-19T16:27:33.068Z,96623.84
2023-05-19T16:30:02.578Z,96621.03
2023-05-19T16:32:34.176Z,96615.72
2023-05-19T16:35:03.255Z,96616.28
2023-05-19T16:37:31.702Z,96616.09
2023-05-19T16:40:00.789Z,96625.50
2023-05-19T16:42:29.141Z,96613.28
2023-05-19T16:44:58.449Z,96606.66
2023-05-19T16:47:27.411Z,96610.22
2023-05-19T16:49:57.117Z,96613.31
2023-05-19T16:52:26.563Z,96618.09
2023-05-19T16:54:54.947Z,96613.28
2023-05-19T16:57:23.788Z,96608.59
2023-05-19T16:59:52.574Z,96607.09
2023-05-19T17:02:21.238Z,96603.72
2023-05-19T17:04:50.116Z,96602.81
2023-05-19T17:07:20.239Z,96588.53
2023-05-19T17:09:49.165Z,96601.69
2023-05-19T17:12:17.910Z,96600.47
2023-05-19T17:14:46.269Z,96595.75
2023-05-19T17:17:14.774Z,96604.03
2023-05-19T17:19:43.272Z,96599.34
2023-05-19T17:22:11.633Z,96611.28
2023-05-19T17:24:42.925Z,96594.94
2023-05-19T17:27:11.319Z,96598.31
2023-05-19T17:29:40.168Z,96596.78
2023-05-19T17:32:08.971Z,96595.75
2023-05-19T17:34:38.623Z,96601.69
2023-05-19T17:37:07.318Z,96593.75
2023-05-19T17:39:36.846Z,96596.09
2023-05-19T17:42:06.963Z,96591.28
2023-05-19T17:44:36.849Z,96594.97
2023-05-19T17:47:07.228Z,96584.75
2023-05-19T17:49:36.182Z,96591.59
2023-05-19T17:52:05.631Z,96592.28
2023-05-19T17:54:37.512Z,96588.22
2023-05-19T17:57:12.722Z,96595.66
2023-05-19T17:59:41.806Z,96595.13
2023-05-19T18:02:12.288Z,96591.09
2023-05-19T18:04:41.564Z,96599.16
2023-05-19T18:07:11.136Z,96595.50
2023-05-19T18:09:45.840Z,96601.56
2023-05-19T18:12:15.550Z,96593.72
2023-05-19T18:14:44.370Z,96602.66
2023-05-19T18:17:12.816Z,96595.91
2023-05-19T18:19:41.324Z,96585.50
2023-05-19T18:22:12.777Z,96592.28
2023-05-19T18:24:42.838Z,96597.56
2023-05-19T18:27:11.260Z,96588.88
2023-05-19T18:29:41.380Z,96597.94
2023-05-19T18:32:10.322Z,96596.91
2023-05-19T18:34:39.444Z,96596.91
2023-05-19T18:37:08.307Z,96592.59
2023-05-19T18:39:36.660Z,96588.03
2023-05-19T18:42:06.822Z,96599.84
2023-05-19T18:44:35.312Z,96601.41
2023-05-19T18:47:05.838Z,96598.16
2023-05-19T18:49:34.281Z,96596.56
2023-05-19T18:52:03.137Z,96589.81
2023-05-19T18:54:32.532Z,96601.91
2023-05-19T18:57:03.795Z,96605.31
2023-05-19T18:59:32.201Z,96597.19
2023-05-19T19:02:01.670Z,96613.97
2023-05-19T19:04:31.439Z,96603.94
2023-05-19T19:06:59.868Z,96615.50
2023-05-19T19:09:28.197Z,96584.16
2023-05-19T19:11:57.033Z,96605.91
2023-05-19T19:14:25.606Z,96617.72
2023-05-19T19:16:54.174Z,96618.81
2023-05-19T19:19:23.850Z,96610.16
2023-05-19T19:21:54.615Z,96624.66
2023-05-19T19:24:23.501Z,96623.53
2023-05-19T19:26:51.893Z,96624.47
2023-05-19T19:29:21.896Z,96619.84
2023-05-19T19:31:50.917Z,96638.25
2023-05-19T19:34:20.890Z,96642.66
2023-05-19T19:36:50.184Z,96632.13
2023-05-19T19:39:21.462Z,96635.97
2023-05-19T19:41:51.477Z,96632.16
2023-05-19T19:44:21.509Z,96624.22
2023-05-19T19:46:50.791Z,96628.72
2023-05-19T19:49:19.736Z,96625.75
2023-05-19T19:51:48.048Z,96634.81
2023-05-19T19:54:16.746Z,96633.41
2023-05-19T19:56:47.389Z,96629.88
2023-05-19T19:59:16.006Z,96624.19
2023-05-19T20:01:45.332Z,96640.03
2023-05-19T20:04:13.875Z,96640.91
2023-05-19T20:06:42.854Z,96636.78
2023-05-19T20:09:11.217Z,96634.91
2023-05-19T20:11:40.722Z,96637.94
2023-05-19T20:14:11.159Z,96632.47
2023-05-19T20:16:40.393Z,96627.50
2023-05-19T20:19:09.572Z,96624.78
2023-05-19T20:21:37.937Z,96626.50
2023-05-19T20:24:07.136Z,96627.81
2023-05-19T20:26:35.499Z,96623.16
2023-05-19T20:29:04.894Z,96627.53
2023-05-19T20:31:35.051Z,96620.72
2023-05-19T20:34:03.465Z,96618.25
2023-05-19T20:36:32.769Z,96623.47
2023-05-19T20:39:01.763Z,96613.16
2023-05-19T20:41:30.102Z,96619.44
2023-05-19T20:43:58.951Z,96615.66
2023-05-19T20:46:27.432Z,96615.13
2023-05-19T20:48:58.098Z,96609.69
2023-05-19T20:51:27.289Z,96609.47
2023-05-19T20:53:56.517Z,96615.53
2023-05-19T20:56:25.053Z,96618.56
2023-05-19T20:58:53.836Z,96611.69
2023-05-19T21:01:22.282Z,96615.53
2023-05-19T21:03:51.092Z,96620.81
2023-05-19T21:06:21.038Z,96618.38
2023-05-19T21:08:49.426Z,96613.44
2023-05-19T21:11:17.793Z,96615.63
2023-05-19T21:13:47.137Z,96606.38
2023-05-19T21:16:15.536Z,96609.66
2023-05-19T21:18:43.951Z,96607.47
2023-05-19T21:21:13.230Z,96596.81
2023-05-19T21:23:43.288Z,96599.00
2023-05-19T21:26:11.668Z,96600.66
2023-05-19T21:28:40.460Z,96596.00
2023-05-19T21:31:08.846Z,96597.13
2023-05-19T21:33:37.608Z,96597.44
2023-05-19T21:36:06.501Z,96600.47
2023-05-19T21:38:35.392Z,96572.00
2023-05-19T21:41:05.480Z,96592.53
2023-05-19T21:43:34.254Z,96588.19
2023-05-19T21:46:02.720Z,96595.56
2023-05-19T21:48:32.108Z,96582.19
2023-05-19T21:51:00.485Z,96596.13
2023-05-19T21:53:30.152Z,96597.50
2023-05-19T21:55:58.542Z,96584.94
2023-05-19T21:58:30.181Z,96589.06
2023-05-19T22:00:59.414Z,96589.59
2023-05-19T22:03:29.502Z,96574.31
2023-05-19T22:05:58.557Z,96589.06
2023-05-19T22:08:27.056Z,96589.88
2023-05-19T22:10:56.745Z,96590.16
2023-05-19T22:13:25.139Z,96587.97
2023-05-19T22:15:56.347Z,96582.50
2023-05-19T22:18:24.730Z,96585.22
2023-05-19T22:20:54.020Z,96591.78
2023-05-19T22:23:22.384Z,96583.84
2023-05-19T22:25:51.783Z,96586.03
2023-05-19T22:28:20.186Z,96579.72
2023-05-19T22:30:49.093Z,96581.38
2023-05-19T22:33:18.781Z,96581.09
2023-05-19T22:35:48.087Z,96573.72
2023-05-19T22:38:16.447Z,96572.63
2023-05-19T22:40:45.741Z,96571.25
2023-05-19T22:43:14.047Z,96567.44
2023-05-19T22:45:43.324Z,96565.81
2023-05-19T22:48:11.885Z,96561.97
2023-05-19T22:50:41.642Z,96559.22
2023-05-19T22:53:11.110Z,96563.88
2023-05-19T22:55:39.553Z,96565.50
2023-05-19T22:58:09.475Z,96561.69
2023-05-19T23:00:37.872Z,96563.03
2023-05-19T23:03:07.031Z,96564.13
2023-05-19T23:05:36.673Z,96555.97
2023-05-19T23:08:07.362Z,96556.47
2023-05-19T23:10:36.239Z,96556.47
2023-05-19T23:13:04.813Z,96549.91
2023-05-19T23:15:34.978Z,96552.63
2023-05-19T23:18:07.230Z,96546.34
2023-05-19T23:20:36.826Z,96547.16
2023-05-19T23:23:06.573Z,96543.88
2023-05-19T23:25:36.539Z,96545.50
2023-05-19T23:28:05.390Z,96542.22
2023-05-19T23:30:37.796Z,96543.03
2023-05-19T23:33:06.355Z,96537.84
2023-05-19T23:35:35.013Z,96535.13
2023-05-19T23:38:04.485Z,96528.00
2023-05-19T23:40:34.284Z,96529.09
2023-05-19T23:43:03.759Z,96529.94
2023-05-19T23:45:32.274Z,96515.44
2023-05-19T23:48:01.643Z,96514.63
2023-05-19T23:50:29.957Z,96517.09
2023-05-19T23:52:59.066Z,96521.44
2023-05-19T23:55:28.484Z,96515.16
2023-05-19T23:57:58.194Z,96513.00
